Time;durP1;ratioP1;P1;durP2;ratioP2;P2;SDS_P1;SDS_P2;PMS_P1;PMS_P2;Temp;Humidity;BMP_temperature;BMP_pressure;BME280_temperature;BME280_humidity;BME280_pressure;Samples;Min_cycle;Max_cycle;Signal;HPM_P1;HPM_P2
2023/09/12 00:01:42;;;;;;;10.27;7.55;;;17.80;99.90;;;;;;5072758;28;20261;-77
2023/09/12 00:04:13;;;;;;;10.95;7.78;;;17.80;99.90;;;;;;5072685;28;20605;-77
2023/09/12 00:06:44;;;;;;;18.67;9.75;;;17.90;99.90;;;;;;5073493;28;20219;-76
2023/09/12 00:09:15;;;;;;;14.02;10.00;;;18.00;99.90;;;;;;5078562;28;20201;-77
2023/09/12 00:11:46;;;;;;;13.45;8.73;;;18.00;99.90;;;;;;5096992;28;20192;-76
2023/09/12 00:14:19;;;;;;;13.80;7.97;;;18.00;99.90;;;;;;5083702;28;20184;-78
2023/09/12 00:16:55;;;;;;;12.32;7.85;;;18.10;99.90;;;;;;5096512;28;20200;-77
2023/09/12 00:19:26;;;;;;;12.15;7.82;;;18.10;99.90;;;;;;5096303;28;20260;-77
2023/09/12 00:21:57;;;;;;;16.67;7.95;;;18.20;99.90;;;;;;5096653;28;20188;-77
2023/09/12 00:24:27;;;;;;;12.75;8.05;;;18.20;99.90;;;;;;5096506;28;20216;-77
2023/09/12 00:26:58;;;;;;;14.70;8.80;;;18.30;99.90;;;;;;5096601;28;20184;-78
2023/09/12 00:29:29;;;;;;;12.90;8.52;;;18.40;99.90;;;;;;5096300;28;20192;-78
2023/09/12 00:32:02;;;;;;;16.15;9.00;;;18.60;99.90;;;;;;5096253;28;20207;-77
2023/09/12 00:34:32;;;;;;;14.50;9.18;;;18.70;99.90;;;;;;5096281;28;20644;-76
2023/09/12 00:37:03;;;;;;;17.23;10.07;;;18.80;99.90;;;;;;5096059;28;20243;-76
2023/09/12 00:39:34;;;;;;;15.57;9.30;;;18.90;99.90;;;;;;5096477;28;20195;-76
2023/09/12 00:42:07;;;;;;;12.88;9.02;;;18.90;99.90;;;;;;5094115;28;20188;-77
2023/09/12 00:44:38;;;;;;;10.32;8.15;;;19.00;99.90;;;;;;5092446;28;20219;-76
2023/09/12 00:47:11;;;;;;;13.10;8.25;;;19.20;99.90;;;;;;5096416;28;20195;-77
2023/09/12 00:49:42;;;;;;;12.70;7.70;;;19.40;99.90;;;;;;5096268;28;20567;-76
2023/09/12 00:52:14;;;;;;;12.13;7.97;;;19.50;99.90;;;;;;5096056;28;20714;-77
2023/09/12 00:54:45;;;;;;;13.80;8.13;;;19.60;99.90;;;;;;5096166;28;20192;-76
2023/09/12 00:57:17;;;;;;;11.15;7.60;;;19.60;99.90;;;;;;5095663;28;20188;-76
2023/09/12 00:59:48;;;;;;;11.88;7.97;;;19.70;99.90;;;;;;5094452;28;20192;-76
2023/09/12 01:02:22;;;;;;;11.68;7.55;;;19.70;99.90;;;;;;5095926;28;20275;-77
2023/09/12 01:04:53;;;;;;;15.75;8.88;;;19.70;99.90;;;;;;5095699;28;20728;-75
2023/09/12 01:07:24;;;;;;;10.50;7.80;;;19.60;99.90;;;;;;5095822;28;20200;-76
2023/09/12 01:09:55;;;;;;;16.20;8.68;;;19.80;99.90;;;;;;5095874;28;20555;-77
2023/09/12 01:12:26;;;;;;;12.40;7.80;;;19.70;99.90;;;;;;5095066;28;20184;-76
2023/09/12 01:14:57;;;;;;;8.40;6.88;;;19.80;99.90;;;;;;5088480;28;20652;-77
2023/09/12 01:17:30;;;;;;;9.95;7.43;;;19.90;99.90;;;;;;5095574;28;20199;-77
2023/09/12 01:20:02;;;;;;;10.27;7.75;;;19.90;99.90;;;;;;5083299;28;20184;-76
2023/09/12 01:23:04;;;;;;;11.50;8.68;;;19.90;99.90;;;;;;5087657;28;20250;-77
2023/09/12 01:26:02;;;;;;;11.98;8.02;;;19.90;99.90;;;;;;5068599;28;20227;-77
2023/09/12 01:28:36;;;;;;;10.85;8.23;;;20.10;99.90;;;;;;5095483;28;20203;-76
2023/09/12 01:31:08;;;;;;;13.05;8.13;;;20.20;99.90;;;;;;5093827;28;20545;-78
2023/09/12 01:33:39;;;;;;;12.85;8.25;;;20.30;99.90;;;;;;5095469;28;20561;-77
2023/09/12 01:36:11;;;;;;;12.43;8.40;;;20.20;99.90;;;;;;5094444;28;20196;-77
2023/09/12 01:38:42;;;;;;;12.88;8.20;;;20.10;99.90;;;;;;5094891;28;20287;-77
2023/09/12 01:41:12;;;;;;;12.55;8.43;;;20.10;99.90;;;;;;5094832;28;20204;-77
2023/09/12 01:43:46;;;;;;;11.52;7.93;;;20.10;99.90;;;;;;5094036;28;20215;-77
2023/09/12 01:46:18;;;;;;;14.93;8.63;;;20.00;99.90;;;;;;5092746;28;20193;-77
2023/09/12 01:48:51;;;;;;;11.68;8.00;;;20.00;99.90;;;;;;5094406;28;20193;-76
2023/09/12 01:51:22;;;;;;;10.00;7.35;;;20.20;99.90;;;;;;5095455;28;20196;-76
2023/09/12 01:53:54;;;;;;;13.57;7.70;;;20.30;99.90;;;;;;5093610;28;20196;-77
2023/09/12 01:56:26;;;;;;;12.18;7.82;;;20.40;99.90;;;;;;5094529;28;20621;-77
2023/09/12 01:58:58;;;;;;;11.10;7.72;;;20.40;99.90;;;;;;5093186;28;20200;-77
2023/09/12 02:01:29;;;;;;;12.65;7.82;;;20.50;99.90;;;;;;5092609;28;20219;-77
2023/09/12 02:04:00;;;;;;;10.38;7.30;;;20.60;99.90;;;;;;5094818;28;20251;-77
2023/09/12 02:06:31;;;;;;;9.32;7.13;;;20.60;99.90;;;;;;5094386;28;20271;-78
2023/09/12 02:09:02;;;;;;;12.25;7.50;;;20.80;99.90;;;;;;5093478;28;20200;-78
2023/09/12 02:11:32;;;;;;;11.43;7.60;;;20.90;99.90;;;;;;5094850;28;20193;-77
2023/09/12 02:14:05;;;;;;;9.77;7.57;;;20.90;99.90;;;;;;5094353;28;20207;-77
2023/09/12 02:16:39;;;;;;;15.15;8.20;;;21.10;99.90;;;;;;5094476;28;20199;-77
2023/09/12 02:19:10;;;;;;;13.50;7.55;;;21.20;99.90;;;;;;5093438;28;20188;-78
2023/09/12 02:21:40;;;;;;;11.02;6.72;;;21.20;99.90;;;;;;5093895;28;20243;-77
2023/09/12 02:24:11;;;;;;;9.38;7.05;;;21.20;99.90;;;;;;5094021;28;20212;-77
2023/09/12 02:26:42;;;;;;;11.60;7.32;;;21.30;99.90;;;;;;5094397;28;20575;-78
2023/09/12 02:29:15;;;;;;;10.70;7.50;;;21.50;99.90;;;;;;5094229;28;20192;-79
2023/09/12 02:31:46;;;;;;;9.55;7.00;;;21.60;99.90;;;;;;5083200;28;20196;-78
2023/09/12 02:34:21;;;;;;;12.73;6.53;;;21.30;99.90;;;;;;5082902;28;20217;-77
2023/09/12 02:36:53;;;;;;;7.93;6.20;;;21.30;99.90;;;;;;5093016;28;20576;-77
2023/09/12 02:39:24;;;;;;;10.05;6.18;;;21.20;99.90;;;;;;5092493;28;20196;-77
2023/09/12 02:41:54;;;;;;;8.38;6.43;;;21.20;99.90;;;;;;5093296;28;20709;-79
2023/09/12 02:44:27;;;;;;;7.95;6.30;;;21.30;99.90;;;;;;5092688;28;20215;-77
2023/09/12 02:46:58;;;;;;;10.07;6.28;;;21.30;99.90;;;;;;5089092;28;20286;-77
2023/09/12 02:49:28;;;;;;;8.20;6.28;;;21.20;99.90;;;;;;5093589;28;20196;-77
2023/09/12 02:51:59;;;;;;;12.15;6.72;;;21.20;99.90;;;;;;5092587;28;20239;-79
2023/09/12 02:54:30;;;;;;;10.20;5.93;;;21.10;99.90;;;;;;5093482;28;20188;-77
2023/09/12 02:57:01;;;;;;;7.15;4.88;;;20.90;99.90;;;;;;5093524;28;20560;-77
2023/09/12 02:59:34;;;;;;;8.48;5.97;;;20.80;99.90;;;;;;5092487;28;20188;-78
2023/09/12 03:02:05;;;;;;;8.05;5.57;;;20.80;99.90;;;;;;5091334;28;20196;-78
2023/09/12 03:04:40;;;;;;;9.23;6.38;;;20.70;99.90;;;;;;5084815;28;20232;-77
2023/09/12 03:07:10;;;;;;;9.02;5.82;;;20.50;99.90;;;;;;5092928;28;20188;-77
2023/09/12 03:09:41;;;;;;;8.85;5.30;;;20.50;99.90;;;;;;5093598;28;20208;-77
2023/09/12 03:12:12;;;;;;;8.82;5.40;;;20.50;99.90;;;;;;5093920;28;20220;-77
2023/09/12 03:14:44;;;;;;;10.02;6.13;;;20.50;99.90;;;;;;5090872;28;20196;-77
2023/09/12 03:17:15;;;;;;;10.15;5.45;;;20.50;99.90;;;;;;5091684;28;20192;-78
2023/09/12 03:19:46;;;;;;;8.50;4.90;;;20.50;99.90;;;;;;5093669;28;20184;-77
2023/09/12 03:22:17;;;;;;;23.48;10.23;;;20.40;99.90;;;;;;5093291;28;20226;-77
2023/09/12 03:24:48;;;;;;;9.05;5.32;;;20.50;99.90;;;;;;5093301;28;20706;-77
2023/09/12 03:27:19;;;;;;;8.55;5.35;;;20.50;99.90;;;;;;5093386;28;20552;-78
2023/09/12 03:29:53;;;;;;;7.22;5.32;;;20.60;99.90;;;;;;5093344;28;20573;-77
2023/09/12 03:32:23;;;;;;;9.15;5.88;;;20.60;99.90;;;;;;5093324;28;20548;-77
2023/09/12 03:34:54;;;;;;;11.25;6.40;;;20.80;99.90;;;;;;5079569;28;20212;-77
2023/09/12 03:37:27;;;;;;;9.45;5.90;;;20.70;99.90;;;;;;5075494;28;20275;-77
2023/09/12 03:39:58;;;;;;;8.88;5.75;;;20.60;99.90;;;;;;5093000;28;20249;-77
2023/09/12 03:42:28;;;;;;;7.97;5.85;;;20.70;99.90;;;;;;5095057;28;20188;-77
2023/09/12 03:45:01;;;;;;;9.13;6.10;;;20.70;99.90;;;;;;5092941;28;20638;-77
2023/09/12 03:47:32;;;;;;;9.93;5.93;;;20.70;99.90;;;;;;5085812;28;20180;-78
2023/09/12 03:50:03;;;;;;;8.88;5.57;;;20.50;99.90;;;;;;5095231;28;20191;-75
2023/09/12 03:52:34;;;;;;;9.07;5.88;;;20.60;99.90;;;;;;5095239;28;20231;-78
2023/09/12 03:55:04;;;;;;;9.27;5.60;;;20.50;99.90;;;;;;5087829;28;20199;-77
2023/09/12 03:57:35;;;;;;;9.68;6.50;;;20.50;99.90;;;;;;5090026;28;20197;-78
2023/09/12 04:00:09;;;;;;;9.95;6.35;;;20.40;99.90;;;;;;5086265;28;20299;-78
2023/09/12 04:02:40;;;;;;;9.70;6.55;;;20.20;99.90;;;;;;5095189;28;20220;-78
2023/09/12 04:05:11;;;;;;;8.80;6.72;;;20.20;99.90;;;;;;5094664;28;20775;-78
2023/09/12 04:07:42;;;;;;;10.40;6.60;;;20.20;99.90;;;;;;5096668;28;20195;-77
2023/09/12 04:10:13;;;;;;;12.32;8.40;;;20.20;99.90;;;;;;5097002;28;20185;-78
2023/09/12 04:12:44;;;;;;;10.75;7.57;;;20.20;99.90;;;;;;5080535;28;20201;-78
2023/09/12 04:15:16;;;;;;;11.45;7.43;;;20.10;99.90;;;;;;5093210;28;20200;-79
2023/09/12 04:17:50;;;;;;;10.77;7.72;;;20.10;99.90;;;;;;5096928;28;20541;-78
2023/09/12 04:20:21;;;;;;;10.82;7.55;;;20.10;99.90;;;;;;5096733;28;20564;-79
2023/09/12 04:22:51;;;;;;;12.90;7.78;;;20.00;99.90;;;;;;5096697;28;20267;-78
2023/09/12 04:25:22;;;;;;;13.75;7.82;;;20.00;99.90;;;;;;5095566;28;20215;-78
2023/09/12 04:27:53;;;;;;;9.82;7.38;;;19.90;99.90;;;;;;5095565;28;20192;-78
2023/09/12 04:30:25;;;;;;;13.45;7.00;;;19.80;99.90;;;;;;5095323;28;20204;-78
2023/09/12 04:32:56;;;;;;;12.75;7.78;;;19.80;99.90;;;;;;5077362;28;20652;-79
2023/09/12 04:35:27;;;;;;;11.80;7.53;;;19.80;99.90;;;;;;5075889;28;20185;-78
2023/09/12 04:37:58;;;;;;;11.75;7.78;;;19.70;99.90;;;;;;5082677;28;20193;-78
2023/09/12 04:40:28;;;;;;;10.35;7.55;;;19.70;99.90;;;;;;5093963;28;20203;-78
2023/09/12 04:42:59;;;;;;;10.05;7.68;;;19.70;99.90;;;;;;5094975;28;20196;-78
2023/09/12 04:45:32;;;;;;;11.77;7.63;;;19.60;99.90;;;;;;5096261;28;20212;-78
2023/09/12 04:48:04;;;;;;;10.85;7.95;;;19.70;99.90;;;;;;5095658;28;20207;-79
2023/09/12 04:50:34;;;;;;;14.73;8.15;;;19.70;99.90;;;;;;5096181;28;20701;-79
2023/09/12 04:53:05;;;;;;;13.15;7.88;;;19.60;99.90;;;;;;5095797;28;20228;-78
2023/09/12 04:55:38;;;;;;;11.00;7.80;;;19.60;99.90;;;;;;5094824;28;20656;-78
2023/09/12 04:58:09;;;;;;;13.98;8.18;;;19.50;99.90;;;;;;5095804;28;20179;-78
2023/09/12 05:00:43;;;;;;;14.82;8.63;;;19.50;99.90;;;;;;5093357;28;20201;-78
2023/09/12 05:03:14;;;;;;;13.30;8.35;;;19.40;99.90;;;;;;5090608;28;20758;-78
2023/09/12 05:05:44;;;;;;;11.85;8.20;;;19.50;99.90;;;;;;5094520;28;20220;-78
2023/09/12 05:08:15;;;;;;;14.60;8.57;;;19.60;99.90;;;;;;5095675;28;20185;-79
2023/09/12 05:10:47;;;;;;;14.32;9.75;;;19.60;99.90;;;;;;5095765;28;20310;-77
2023/09/12 05:13:18;;;;;;;15.07;9.73;;;19.60;99.90;;;;;;5095343;28;20196;-78
2023/09/12 05:15:51;;;;;;;15.05;9.05;;;19.50;99.90;;;;;;5095226;28;20199;-78
2023/09/12 05:18:22;;;;;;;14.90;8.98;;;19.50;99.90;;;;;;5095591;28;20276;-77
2023/09/12 05:20:52;;;;;;;13.85;8.10;;;19.50;99.90;;;;;;5095542;28;20208;-78
2023/09/12 05:23:23;;;;;;;14.40;8.70;;;19.50;99.90;;;;;;5095384;28;20180;-77
2023/09/12 05:25:54;;;;;;;12.25;8.82;;;19.40;99.90;;;;;;5088756;28;20215;-78
2023/09/12 05:28:24;;;;;;;12.77;8.48;;;19.50;99.90;;;;;;5094999;28;20196;-77
2023/09/12 05:30:57;;;;;;;15.05;9.57;;;19.50;99.90;;;;;;5095131;28;20648;-77
2023/09/12 05:33:28;;;;;;;14.93;8.63;;;19.50;99.90;;;;;;5095259;28;20200;-77
2023/09/12 05:35:59;;;;;;;15.43;9.23;;;19.40;99.90;;;;;;5095320;28;20185;-77
2023/09/12 05:38:29;;;;;;;12.30;8.50;;;19.30;99.90;;;;;;5094182;28;20238;-78
2023/09/12 05:41:00;;;;;;;15.68;8.50;;;19.30;99.90;;;;;;5095215;28;20581;-77
2023/09/12 05:43:31;;;;;;;11.38;7.93;;;19.30;99.90;;;;;;5095161;28;20648;-78
2023/09/12 05:46:04;;;;;;;13.70;8.60;;;19.40;99.90;;;;;;5093224;28;20223;-78
2023/09/12 05:48:35;;;;;;;12.10;8.57;;;19.50;99.90;;;;;;5092200;28;20670;-78
2023/09/12 05:51:05;;;;;;;12.52;8.70;;;19.60;99.90;;;;;;5095096;28;20636;-77
2023/09/12 05:53:36;;;;;;;12.68;8.88;;;19.50;99.90;;;;;;5094597;28;20322;-78
2023/09/12 05:56:07;;;;;;;13.27;8.80;;;19.30;99.90;;;;;;5094793;28;20218;-78
2023/09/12 05:58:41;;;;;;;11.55;8.30;;;19.30;99.90;;;;;;5094963;28;20556;-78
2023/09/12 06:01:14;;;;;;;12.82;8.68;;;19.20;99.90;;;;;;5094739;28;20552;-78
2023/09/12 06:03:45;;;;;;;12.77;8.50;;;19.10;99.90;;;;;;5094740;28;20722;-78
2023/09/12 06:06:16;;;;;;;13.30;7.97;;;18.90;99.90;;;;;;5094041;28;20614;-78
2023/09/12 06:08:47;;;;;;;14.52;8.25;;;18.80;99.90;;;;;;5094732;28;20654;-78
2023/09/12 06:11:17;;;;;;;12.10;8.73;;;18.70;99.90;;;;;;5094689;28;20196;-77
2023/09/12 06:13:48;;;;;;;13.57;7.93;;;18.60;99.90;;;;;;5094525;28;20228;-78
2023/09/12 06:16:21;;;;;;;13.65;7.68;;;18.50;99.90;;;;;;5090926;28;20196;-78
2023/09/12 06:18:53;;;;;;;10.25;7.90;;;18.50;99.90;;;;;;5094678;28;20192;-78
2023/09/12 06:21:24;;;;;;;10.27;7.90;;;18.60;99.90;;;;;;5094484;28;20193;-79
2023/09/12 06:24:12;;;;;;;11.07;7.45;;;18.60;99.90;;;;;;5094355;28;20202;-78
2023/09/12 06:26:43;;;;;;;11.30;7.38;;;18.40;99.90;;;;;;5094397;28;20650;-79
2023/09/12 06:29:14;;;;;;;10.27;7.10;;;18.40;99.90;;;;;;5094256;28;20570;-78
2023/09/12 06:31:48;;;;;;;10.40;7.55;;;18.30;99.90;;;;;;5094393;28;20216;-78
2023/09/12 06:34:19;;;;;;;8.75;6.38;;;18.20;99.90;;;;;;5090965;28;20227;-78
2023/09/12 06:36:49;;;;;;;9.63;7.00;;;18.10;99.90;;;;;;5094143;28;20199;-78
2023/09/12 06:39:20;;;;;;;11.45;7.50;;;18.00;99.90;;;;;;5093666;28;20191;-79
2023/09/12 06:41:51;;;;;;;12.55;7.20;;;18.00;99.90;;;;;;5074099;28;20212;-78
2023/09/12 06:44:21;;;;;;;11.68;7.30;;;18.00;99.90;;;;;;5080097;28;20604;-78
2023/09/12 06:46:54;;;;;;;11.70;7.97;;;18.10;99.90;;;;;;5092655;28;20216;-78
2023/09/12 06:49:25;;;;;;;10.30;7.13;;;18.10;99.90;;;;;;5088721;28;20196;-78
2023/09/12 06:51:55;;;;;;;10.30;6.97;;;18.00;99.90;;;;;;5083769;28;20220;-77
2023/09/12 06:54:26;;;;;;;12.85;7.50;;;18.00;99.90;;;;;;5083389;28;20201;-78
2023/09/12 06:56:57;;;;;;;12.02;7.03;;;18.00;99.90;;;;;;5093373;28;20184;-78
2023/09/12 06:59:28;;;;;;;8.48;6.88;;;18.00;99.90;;;;;;5092233;28;20215;-78
2023/09/12 07:02:00;;;;;;;12.32;7.03;;;18.00;99.90;;;;;;5093328;28;20575;-80
2023/09/12 07:04:31;;;;;;;12.40;7.28;;;18.00;99.90;;;;;;5093551;28;20216;-78
2023/09/12 07:07:02;;;;;;;12.07;7.40;;;17.90;99.90;;;;;;5082314;28;20220;-78
2023/09/12 07:09:33;;;;;;;10.23;7.63;;;17.90;99.90;;;;;;5084916;28;20186;-78
2023/09/12 07:12:05;;;;;;;9.13;6.93;;;17.80;99.90;;;;;;5087980;28;20201;-78
2023/09/12 07:14:37;;;;;;;9.98;7.63;;;17.70;99.90;;;;;;5093574;28;20192;-78
2023/09/12 07:17:10;;;;;;;10.00;6.82;;;17.70;99.90;;;;;;5093393;28;20275;-78
2023/09/12 07:19:41;;;;;;;12.43;7.32;;;17.60;99.90;;;;;;5093363;28;20184;-78
2023/09/12 07:22:12;;;;;;;10.95;6.93;;;17.60;99.90;;;;;;5092634;28;20188;-77
2023/09/12 07:24:42;;;;;;;12.50;7.63;;;17.60;99.90;;;;;;5092898;28;20555;-78
2023/09/12 07:27:13;;;;;;;10.60;7.18;;;17.50;99.90;;;;;;5092812;28;20216;-79
2023/09/12 07:29:44;;;;;;;13.70;7.32;;;17.50;99.90;;;;;;5081178;28;20192;-78
2023/09/12 07:32:16;;;;;;;10.43;6.93;;;17.40;99.90;;;;;;5084151;28;20192;-78
2023/09/12 07:34:48;;;;;;;10.48;7.25;;;17.40;99.90;;;;;;5088935;28;20189;-78
2023/09/12 07:37:19;;;;;;;11.57;7.28;;;17.30;99.90;;;;;;5093196;28;20204;-77
2023/09/12 07:39:49;;;;;;;11.93;7.28;;;17.30;99.90;;;;;;5093444;28;20188;-77
2023/09/12 07:42:24;;;;;;;12.02;7.18;;;17.20;99.90;;;;;;5093121;28;20526;-78
2023/09/12 07:44:54;;;;;;;11.18;7.38;;;17.20;99.90;;;;;;5092863;28;20189;-78
2023/09/12 07:47:27;;;;;;;11.75;7.03;;;17.10;99.90;;;;;;5093345;28;20212;-78
2023/09/12 07:49:59;;;;;;;12.50;7.25;;;17.10;99.90;;;;;;5093261;28;20690;-78
2023/09/12 07:52:30;;;;;;;10.10;7.43;;;17.00;99.90;;;;;;5089465;28;20599;-77
2023/09/12 07:55:04;;;;;;;9.32;6.72;;;16.90;99.90;;;;;;5092500;28;20226;-78
2023/09/12 07:57:36;;;;;;;9.88;7.30;;;16.90;99.90;;;;;;5091055;28;20188;-78
2023/09/12 08:00:10;;;;;;;11.82;7.03;;;16.90;99.90;;;;;;5093282;28;20188;-78
2023/09/12 08:02:43;;;;;;;11.75;7.05;;;16.80;99.90;;;;;;5093508;28;20310;-78
2023/09/12 08:05:14;;;;;;;11.63;7.53;;;16.80;99.90;;;;;;5093104;28;20188;-78
2023/09/12 08:07:45;;;;;;;10.77;7.15;;;16.70;99.90;;;;;;5088879;28;20212;-78
2023/09/12 08:10:15;;;;;;;11.80;6.90;;;16.70;99.90;;;;;;5082055;28;20661;-78
2023/09/12 08:12:46;;;;;;;12.05;7.10;;;16.60;99.90;;;;;;5092197;28;20204;-78
2023/09/12 08:15:17;;;;;;;11.50;7.15;;;16.60;99.90;;;;;;5092369;28;20270;-78
2023/09/12 08:17:51;;;;;;;10.80;6.85;;;16.50;99.90;;;;;;5092062;28;20198;-78
2023/09/12 08:20:22;;;;;;;11.30;7.32;;;16.50;99.90;;;;;;5091250;28;20601;-77
2023/09/12 08:22:53;;;;;;;14.05;7.32;;;16.40;99.90;;;;;;5092002;28;20197;-78
2023/09/12 08:25:24;;;;;;;11.77;7.00;;;16.40;99.90;;;;;;5092310;28;20550;-78
2023/09/12 08:27:55;;;;;;;10.02;6.70;;;16.40;99.90;;;;;;5092567;28;20212;-78
2023/09/12 08:30:27;;;;;;;9.88;6.20;;;16.40;99.90;;;;;;5096187;28;20196;-78
2023/09/12 08:33:03;;;;;;;11.52;6.70;;;16.30;99.90;;;;;;5096150;28;20200;-78
2023/09/12 08:35:33;;;;;;;10.13;6.78;;;16.30;99.90;;;;;;5095866;28;20567;-78
2023/09/12 08:38:04;;;;;;;10.77;6.40;;;16.30;99.90;;;;;;5096350;28;20204;-77
2023/09/12 08:40:37;;;;;;;9.90;6.75;;;16.30;99.90;;;;;;5089990;28;20197;-78
2023/09/12 08:43:08;;;;;;;10.65;6.78;;;16.30;99.90;;;;;;5095746;28;20648;-77
2023/09/12 08:45:39;;;;;;;8.95;6.43;;;16.30;99.90;;;;;;5095568;28;20217;-78
2023/09/12 08:48:12;;;;;;;9.90;6.50;;;16.20;99.90;;;;;;5095809;28;20216;-77
2023/09/12 08:50:44;;;;;;;9.75;6.45;;;16.20;99.90;;;;;;5095985;28;20197;-77
2023/09/12 08:53:15;;;;;;;10.45;6.82;;;16.20;99.90;;;;;;5095756;28;20709;-77
2023/09/12 08:55:45;;;;;;;11.20;6.63;;;16.20;99.90;;;;;;5095607;28;20192;-78
2023/09/12 08:58:16;;;;;;;12.38;6.35;;;16.20;99.90;;;;;;5093568;28;20203;-78
2023/09/12 09:00:47;;;;;;;7.82;6.05;;;16.20;99.90;;;;;;5092132;28;20199;-79
2023/09/12 09:03:21;;;;;;;9.77;6.65;;;16.20;99.90;;;;;;5095557;28;20227;-78
2023/09/12 09:05:54;;;;;;;8.20;5.95;;;16.20;99.90;;;;;;5083079;28;20192;-78
2023/09/12 09:08:26;;;;;;;11.13;6.03;;;16.20;99.90;;;;;;5095368;28;20655;-78
2023/09/12 09:11:02;;;;;;;9.30;6.18;;;16.10;99.90;;;;;;5095584;28;20196;-78
2023/09/12 09:13:33;;;;;;;8.38;5.90;;;16.10;99.90;;;;;;5095395;28;20234;-78
2023/09/12 09:16:16;;;;;;;6.75;5.82;;;16.10;99.90;;;;;;5095697;28;20193;-78
2023/09/12 09:18:59;;;;;;;7.82;5.75;;;16.10;99.90;;;;;;5095052;28;20196;-78
2023/09/12 09:21:33;;;;;;;7.55;5.35;;;16.10;99.90;;;;;;5095335;28;20224;-77
2023/09/12 09:24:06;;;;;;;8.90;5.68;;;16.00;99.90;;;;;;5095008;28;20274;-77
2023/09/12 09:26:48;;;;;;;8.68;5.70;;;16.00;99.90;;;;;;5090539;28;20216;-77
2023/09/12 09:29:19;;;;;;;8.75;6.03;;;16.00;99.90;;;;;;5094710;28;20192;-77
2023/09/12 09:31:51;;;;;;;8.65;5.80;;;16.00;99.90;;;;;;5094889;28;20192;-77
2023/09/12 09:34:24;;;;;;;7.45;5.60;;;15.90;99.90;;;;;;5088974;28;20196;-78
2023/09/12 09:36:56;;;;;;;9.90;5.88;;;15.90;99.90;;;;;;5095158;28;20226;-77
2023/09/12 09:39:28;;;;;;;10.40;6.20;;;15.90;99.90;;;;;;5093575;28;20200;-78
2023/09/12 09:41:59;;;;;;;8.98;6.22;;;15.90;99.90;;;;;;5094712;28;20568;-77
2023/09/12 09:44:31;;;;;;;10.10;6.43;;;15.80;99.90;;;;;;5094203;28;20197;-77
2023/09/12 09:47:04;;;;;;;9.70;5.80;;;15.80;99.90;;;;;;5094808;28;20216;-77
2023/09/12 09:49:37;;;;;;;9.73;5.93;;;15.80;99.90;;;;;;5094715;28;20598;-77
2023/09/12 09:52:08;;;;;;;11.40;6.30;;;15.70;99.90;;;;;;5094522;28;20236;-77
2023/09/12 09:54:45;;;;;;;9.50;6.07;;;15.70;99.90;;;;;;5092018;28;20559;-78
2023/09/12 09:57:16;;;;;;;9.68;6.00;;;15.70;99.90;;;;;;5094774;28;20199;-77
2023/09/12 09:59:53;;;;;;;11.20;5.78;;;15.70;99.90;;;;;;5094672;28;20671;-77
2023/09/12 10:02:28;;;;;;;8.73;5.72;;;15.70;99.90;;;;;;5084764;28;20220;-77
2023/09/12 10:05:04;;;;;;;7.72;5.63;;;15.60;99.90;;;;;;5093813;28;20192;-77
2023/09/12 10:07:38;;;;;;;8.75;5.88;;;15.60;99.90;;;;;;5080988;28;20687;-77
2023/09/12 10:10:09;;;;;;;7.28;5.30;;;15.60;99.90;;;;;;5093857;28;20208;-77
2023/09/12 10:12:46;;;;;;;8.90;5.63;;;15.60;99.90;;;;;;5094182;28;20208;-77
2023/09/12 10:15:17;;;;;;;11.07;5.50;;;15.50;99.90;;;;;;5092905;28;20204;-77
2023/09/12 10:17:53;;;;;;;8.15;5.80;;;15.50;99.90;;;;;;5094073;28;20555;-77
2023/09/12 10:20:31;;;;;;;8.05;6.05;;;15.50;99.90;;;;;;5094086;28;20196;-77
2023/09/12 10:23:11;;;;;;;7.85;5.55;;;15.40;99.90;;;;;;5093677;28;20660;-77
2023/09/12 10:25:43;;;;;;;8.50;5.70;;;15.40;99.90;;;;;;5094531;28;20200;-77
2023/09/12 10:28:15;;;;;;;11.38;5.68;;;15.40;99.90;;;;;;5094121;28;20683;-77
2023/09/12 10:30:46;;;;;;;9.32;5.97;;;15.40;99.90;;;;;;5094176;28;20200;-78
2023/09/12 10:33:19;;;;;;;10.32;5.65;;;15.40;99.90;;;;;;5093573;28;20192;-78
2023/09/12 10:35:53;;;;;;;9.25;5.88;;;15.40;99.90;;;;;;5091727;28;20643;-78
2023/09/12 10:38:26;;;;;;;10.02;5.70;;;15.30;99.90;;;;;;5092339;28;20203;-78
2023/09/12 10:40:57;;;;;;;8.80;5.95;;;15.30;99.90;;;;;;5094037;28;20200;-77
2023/09/12 10:43:29;;;;;;;9.40;6.40;;;15.20;99.90;;;;;;5092942;28;20303;-77
2023/09/12 10:46:02;;;;;;;9.10;5.90;;;15.20;99.90;;;;;;5093721;28;20193;-77
2023/09/12 10:48:33;;;;;;;9.35;6.05;;;15.20;99.90;;;;;;5094161;28;20694;-77
2023/09/12 10:51:07;;;;;;;7.78;5.80;;;15.20;99.90;;;;;;5091015;28;20211;-77
2023/09/12 10:53:38;;;;;;;10.70;6.75;;;15.20;99.90;;;;;;5092652;28;20223;-77
2023/09/12 10:56:21;;;;;;;11.45;6.97;;;15.10;99.90;;;;;;5092829;28;20562;-77
2023/09/12 10:59:13;;;;;;;12.98;7.35;;;15.10;99.90;;;;;;5093857;28;20192;-77
2023/09/12 11:01:45;;;;;;;10.48;6.95;;;15.00;99.90;;;;;;5093272;28;20224;-77
2023/09/12 11:04:37;;;;;;;9.10;7.00;;;15.00;99.90;;;;;;5093693;28;20192;-77
2023/09/12 11:07:38;;;;;;;9.50;6.78;;;15.00;99.90;;;;;;5093776;28;20302;-77
2023/09/12 11:10:26;;;;;;;9.20;6.78;;;15.00;99.90;;;;;;5083969;28;20270;-77
2023/09/12 11:12:59;;;;;;;12.55;7.75;;;14.90;99.90;;;;;;5093812;28;20189;-77
2023/09/12 11:15:31;;;;;;;14.85;8.98;;;14.90;99.90;;;;;;5093537;28;20198;-77
2023/09/12 11:18:06;;;;;;;11.98;8.68;;;14.90;99.90;;;;;;5093606;28;20245;-77
2023/09/12 11:21:03;;;;;;;11.40;8.60;;;14.80;99.90;;;;;;5093027;28;20183;-78
2023/09/12 11:23:35;;;;;;;11.30;7.95;;;14.70;99.90;;;;;;5088005;28;20203;-77
2023/09/12 11:26:13;;;;;;;12.63;7.88;;;14.60;99.90;;;;;;5079734;28;20728;-77
2023/09/12 11:28:44;;;;;;;12.50;7.38;;;14.60;99.90;;;;;;5090364;28;20208;-77
2023/09/12 11:31:30;;;;;;;11.55;8.05;;;14.60;99.90;;;;;;5090928;28;20658;-77
2023/09/12 11:34:04;;;;;;;12.68;8.48;;;14.60;99.90;;;;;;5073070;28;20559;-77
2023/09/12 11:36:43;;;;;;;12.88;8.90;;;14.50;99.90;;;;;;5090406;28;20244;-77
2023/09/12 11:39:27;;;;;;;13.30;8.82;;;14.50;99.90;;;;;;5093140;28;20552;-77
2023/09/12 11:42:00;;;;;;;16.50;11.48;;;14.40;99.90;;;;;;5092916;28;20188;-77
2023/09/12 11:44:32;;;;;;;13.07;10.45;;;14.40;99.90;;;;;;5093234;28;20636;-78
2023/09/12 11:47:06;;;;;;;14.07;9.60;;;14.40;99.90;;;;;;5093316;28;20188;-78
2023/09/12 11:49:40;;;;;;;12.88;9.07;;;14.40;99.90;;;;;;5092731;28;20295;-77
2023/09/12 11:52:13;;;;;;;11.73;8.23;;;14.40;99.90;;;;;;5092309;28;20227;-77
2023/09/12 11:54:44;;;;;;;13.23;8.07;;;14.30;99.90;;;;;;5093175;28;20192;-77
2023/09/12 11:57:17;;;;;;;13.00;8.35;;;14.30;99.90;;;;;;5093203;28;20188;-77
2023/09/12 11:59:49;;;;;;;12.77;8.57;;;14.30;99.90;;;;;;5093283;28;20678;-77
2023/09/12 12:02:20;;;;;;;11.80;8.23;;;14.30;99.90;;;;;;5093032;28;20220;-78
2023/09/12 12:04:50;;;;;;;11.68;8.15;;;14.30;99.90;;;;;;5096820;28;20192;-77
2023/09/12 12:07:20;;;;;;;12.43;8.88;;;14.30;99.90;;;;;;5097169;28;20302;-78
2023/09/12 12:09:51;;;;;;;14.32;9.35;;;14.20;99.90;;;;;;5097080;28;20206;-77
2023/09/12 12:12:24;;;;;;;13.73;9.18;;;14.30;99.90;;;;;;5097117;28;20191;-77
2023/09/12 12:14:55;;;;;;;13.20;9.35;;;14.30;99.90;;;;;;5091094;28;20203;-77
2023/09/12 12:17:25;;;;;;;12.98;8.50;;;14.20;99.90;;;;;;5097048;28;20192;-77
2023/09/12 12:19:56;;;;;;;12.95;8.75;;;14.20;99.90;;;;;;5096970;28;20556;-77
2023/09/12 12:22:27;;;;;;;13.25;8.98;;;14.20;99.90;;;;;;5096973;28;20240;-77
2023/09/12 12:24:58;;;;;;;13.23;9.40;;;14.20;99.90;;;;;;5096881;28;20632;-77
2023/09/12 12:27:32;;;;;;;12.55;9.10;;;14.20;99.90;;;;;;5096520;28;20223;-77
2023/09/12 12:30:02;;;;;;;15.73;9.52;;;14.20;99.90;;;;;;5096721;28;20188;-77
2023/09/12 12:32:33;;;;;;;16.65;10.20;;;14.10;99.90;;;;;;5096515;28;20185;-77
2023/09/12 12:35:04;;;;;;;16.95;10.30;;;14.10;99.90;;;;;;5096601;28;20194;-77
2023/09/12 12:37:35;;;;;;;14.43;9.95;;;14.10;99.90;;;;;;5096617;28;20583;-77
2023/09/12 12:40:07;;;;;;;18.50;11.35;;;14.10;99.90;;;;;;5096415;28;20188;-77
2023/09/12 12:42:41;;;;;;;15.55;10.73;;;14.00;99.90;;;;;;5096273;28;20214;-77
2023/09/12 12:45:16;;;;;;;18.45;9.95;;;14.00;99.90;;;;;;5096398;28;20284;-77
2023/09/12 12:47:47;;;;;;;15.20;10.55;;;14.00;99.90;;;;;;5096271;28;20298;-77
2023/09/12 12:50:19;;;;;;;17.67;10.73;;;13.90;99.90;;;;;;5096312;28;20184;-77
2023/09/12 12:52:51;;;;;;;17.25;11.45;;;13.90;99.90;;;;;;5096207;28;20235;-77
2023/09/12 12:55:23;;;;;;;18.27;10.95;;;13.90;99.90;;;;;;5096036;28;20193;-77
2023/09/12 12:57:55;;;;;;;16.80;11.20;;;13.80;99.90;;;;;;5096266;28;20191;-77
2023/09/12 13:00:26;;;;;;;20.00;11.82;;;13.80;99.90;;;;;;5096068;28;20200;-77
2023/09/12 13:02:57;;;;;;;17.55;11.90;;;13.70;99.90;;;;;;5095981;28;20776;-77
2023/09/12 13:05:30;;;;;;;13.90;10.50;;;13.60;99.90;;;;;;5096139;28;20193;-77